Time;durP1;ratioP1;P1;durP2;ratioP2;P2;SDS_P1;SDS_P2;PMS_P1;PMS_P2;Temp;Humidity;BMP_temperature;BMP_pressure;BME280_temperature;BME280_humidity;BME280_pressure;Samples;Min_cycle;Max_cycle;Signal;HPM_P1;HPM_P2
2021/07/01 00:32:10;;;;;;;6.20;3.67;;;16.60;97.30;;;;;;5025410;22;20633;-90
2021/07/01 00:34:36;;;;;;;6.93;4.10;;;16.60;97.30;;;;;;5030467;28;20870;-91
2021/07/01 00:37:02;;;;;;;7.10;3.80;;;16.60;97.30;;;;;;5013634;28;20212;-89
2021/07/01 00:39:29;;;;;;;5.47;3.10;;;16.60;97.30;;;;;;5015426;28;20212;-89
2021/07/01 00:41:57;;;;;;;5.33;3.40;;;16.60;97.30;;;;;;5016014;28;20200;-89
2021/07/01 00:44:23;;;;;;;5.60;3.17;;;16.60;97.30;;;;;;5017094;28;20426;-90
2021/07/01 00:46:48;;;;;;;4.50;3.27;;;16.60;97.30;;;;;;5013586;28;20407;-90
2021/07/01 00:49:14;;;;;;;3.83;3.13;;;16.60;97.30;;;;;;5013248;28;20192;-90
2021/07/01 00:51:40;;;;;;;3.60;3.03;;;16.50;97.30;;;;;;5013129;28;20181;-90
2021/07/01 00:54:09;;;;;;;6.07;3.20;;;16.50;97.30;;;;;;5014100;28;20176;-89
2021/07/01 00:56:43;;;;;;;3.30;3.07;;;16.50;97.30;;;;;;5014945;28;20184;-90
2021/07/01 00:59:09;;;;;;;5.13;3.43;;;16.50;97.30;;;;;;5033041;28;20449;-90
2021/07/01 01:01:40;;;;;;;6.93;4.80;;;16.50;97.30;;;;;;5015149;28;20796;-89
2021/07/01 01:04:08;;;;;;;8.40;4.77;;;16.50;97.30;;;;;;5017889;28;20422;-90
2021/07/01 01:06:34;;;;;;;9.63;6.07;;;16.40;97.30;;;;;;5036990;28;20411;-90
2021/07/01 01:09:03;;;;;;;8.60;6.07;;;16.40;97.30;;;;;;5020569;28;20425;-90
2021/07/01 01:11:29;;;;;;;7.10;5.50;;;16.40;97.30;;;;;;5020113;28;20180;-90
2021/07/01 01:13:57;;;;;;;11.03;7.63;;;16.40;97.30;;;;;;5019873;28;20446;-91
2021/07/01 01:16:23;;;;;;;10.43;7.20;;;16.40;97.30;;;;;;5020622;28;20172;-90
2021/07/01 01:18:49;;;;;;;10.30;6.53;;;16.30;97.30;;;;;;5019145;28;20494;-90
2021/07/01 01:21:16;;;;;;;18.30;7.80;;;16.30;97.30;;;;;;5037167;28;20165;-90
2021/07/01 01:23:42;;;;;;;10.83;6.90;;;16.30;97.30;;;;;;5018890;28;20526;-90
2021/07/01 01:26:10;;;;;;;9.43;6.80;;;16.30;97.30;;;;;;5017919;28;20415;-90
2021/07/01 01:28:39;;;;;;;9.07;6.53;;;16.20;97.30;;;;;;5017597;28;20482;-89
2021/07/01 01:31:07;;;;;;;11.93;6.90;;;16.20;97.30;;;;;;5034608;28;20410;-90
2021/07/01 01:33:33;;;;;;;11.57;7.03;;;16.20;97.30;;;;;;5017337;28;20974;-91
2021/07/01 01:35:59;;;;;;;10.90;7.10;;;16.20;97.30;;;;;;5017199;28;20502;-89
2021/07/01 01:38:24;;;;;;;9.27;6.03;;;16.20;97.30;;;;;;5017459;28;20502;-90
2021/07/01 01:40:50;;;;;;;12.90;6.07;;;16.20;97.30;;;;;;5016593;28;20200;-89
2021/07/01 01:43:17;;;;;;;7.50;5.80;;;16.20;97.30;;;;;;5017581;28;20204;-89
2021/07/01 01:45:44;;;;;;;7.93;5.73;;;16.20;97.30;;;;;;5017343;28;20168;-90
2021/07/01 01:48:10;;;;;;;8.33;5.50;;;16.20;97.30;;;;;;5016708;28;20415;-91
2021/07/01 01:50:36;;;;;;;8.40;5.70;;;16.20;97.30;;;;;;5035036;28;20415;-90
2021/07/01 01:53:02;;;;;;;6.57;5.07;;;16.20;97.30;;;;;;5018605;28;20439;-90
2021/07/01 01:55:30;;;;;;;8.70;5.17;;;16.20;97.30;;;;;;5036057;28;20419;-90
2021/07/01 01:57:56;;;;;;;5.60;4.83;;;16.20;97.30;;;;;;5036192;28;20419;-89
2021/07/01 02:00:23;;;;;;;7.40;5.33;;;16.20;97.30;;;;;;5017501;28;20515;-90
2021/07/01 02:02:50;;;;;;;9.70;5.40;;;16.10;97.30;;;;;;5017216;28;20200;-91
2021/07/01 02:05:19;;;;;;;8.20;5.47;;;16.10;97.30;;;;;;5034661;28;20424;-89
2021/07/01 02:07:50;;;;;;;10.03;5.13;;;16.10;97.30;;;;;;5018170;28;20516;-90
2021/07/01 02:10:25;;;;;;;8.40;5.50;;;16.10;97.30;;;;;;5035497;28;20477;-90
2021/07/01 02:12:51;;;;;;;9.17;5.17;;;16.10;97.30;;;;;;5017710;28;20481;-90
2021/07/01 02:15:21;;;;;;;8.27;5.07;;;16.10;97.30;;;;;;5016712;28;20423;-90
2021/07/01 02:17:46;;;;;;;10.00;5.47;;;16.10;97.30;;;;;;5016704;28;20426;-89
2021/07/01 02:20:18;;;;;;;8.47;5.87;;;16.10;97.30;;;;;;5016923;28;20458;-91
2021/07/01 02:22:47;;;;;;;9.50;5.63;;;16.10;97.30;;;;;;5016527;28;20228;-90
2021/07/01 02:25:12;;;;;;;12.57;6.60;;;16.10;97.30;;;;;;5016552;28;20502;-92
2021/07/01 02:27:40;;;;;;;9.80;7.10;;;16.10;97.30;;;;;;5016641;28;20454;-90
2021/07/01 02:30:08;;;;;;;8.90;7.00;;;16.10;97.30;;;;;;5016286;28;20177;-90
2021/07/01 02:32:37;;;;;;;10.80;6.73;;;16.10;97.30;;;;;;5016294;28;20474;-90
2021/07/01 02:35:06;;;;;;;10.33;7.00;;;16.10;97.30;;;;;;5015788;28;20423;-90
2021/07/01 02:37:31;;;;;;;9.23;6.50;;;16.10;97.30;;;;;;5034647;28;20418;-90
2021/07/01 02:39:59;;;;;;;13.53;8.40;;;16.10;97.30;;;;;;5034754;28;20447;-90
2021/07/01 02:42:29;;;;;;;10.47;7.83;;;16.10;97.30;;;;;;5016791;28;20188;-89
2021/07/01 02:44:55;;;;;;;11.93;7.43;;;16.10;97.30;;;;;;5016674;28;20443;-89
2021/07/01 02:47:20;;;;;;;11.33;7.63;;;16.10;97.30;;;;;;5016581;28;20781;-90
2021/07/01 02:49:46;;;;;;;11.97;8.10;;;16.20;97.30;;;;;;5018124;28;20181;-90
2021/07/01 02:52:11;;;;;;;12.40;7.90;;;16.20;97.30;;;;;;5018116;28;20200;-90
2021/07/01 02:54:39;;;;;;;13.70;8.33;;;16.20;97.30;;;;;;5018139;28;20199;-89
2021/07/01 02:57:09;;;;;;;17.37;9.37;;;16.20;97.30;;;;;;5017700;28;20541;-90
2021/07/01 02:59:39;;;;;;;15.17;10.03;;;16.20;97.30;;;;;;5016174;28;20508;-91
2021/07/01 03:02:12;;;;;;;18.10;10.23;;;16.10;97.30;;;;;;5015552;28;20811;-90
2021/07/01 03:04:40;;;;;;;17.43;10.50;;;16.10;97.30;;;;;;5014599;28;20424;-90
2021/07/01 03:07:08;;;;;;;15.67;9.50;;;16.10;97.30;;;;;;5014453;28;20419;-90
2021/07/01 03:09:36;;;;;;;18.33;11.30;;;16.10;97.30;;;;;;5014116;28;20438;-90
2021/07/01 03:12:02;;;;;;;16.37;10.17;;;16.10;97.30;;;;;;5013967;28;20849;-90
2021/07/01 03:14:29;;;;;;;19.60;10.97;;;16.10;97.30;;;;;;5014453;28;20462;-90
2021/07/01 03:16:55;;;;;;;19.73;10.77;;;16.10;97.30;;;;;;5013896;28;20252;-90
2021/07/01 03:19:21;;;;;;;26.00;12.60;;;16.10;97.30;;;;;;5015067;28;20482;-90
2021/07/01 03:21:48;;;;;;;23.23;13.13;;;16.10;97.30;;;;;;5015668;28;20184;-90
2021/07/01 03:24:14;;;;;;;21.17;11.83;;;16.10;97.30;;;;;;5015871;28;20199;-90
2021/07/01 03:26:39;;;;;;;25.17;13.03;;;16.10;97.30;;;;;;5016375;28;20937;-89
2021/07/01 03:29:12;;;;;;;28.13;13.33;;;16.10;97.30;;;;;;5016517;28;20168;-90
2021/07/01 03:31:40;;;;;;;24.13;13.50;;;16.00;97.30;;;;;;5033802;28;20236;-90
2021/07/01 03:34:06;;;;;;;24.07;13.27;;;16.00;97.30;;;;;;5016086;28;20479;-90
2021/07/01 03:36:31;;;;;;;27.30;13.83;;;16.00;97.30;;;;;;5016969;28;20481;-90
2021/07/01 03:39:02;;;;;;;25.07;13.73;;;16.00;97.30;;;;;;5017196;28;20223;-90
2021/07/01 03:41:29;;;;;;;26.43;13.57;;;16.00;97.30;;;;;;5017644;28;20157;-90
2021/07/01 03:43:58;;;;;;;28.40;14.70;;;16.00;97.30;;;;;;5017483;28;20435;-90
2021/07/01 03:46:23;;;;;;;28.17;14.20;;;16.00;97.30;;;;;;5017623;28;20502;-90
2021/07/01 03:48:49;;;;;;;27.00;14.70;;;16.00;97.30;;;;;;5017894;28;20439;-90
2021/07/01 03:51:22;;;;;;;27.93;14.80;;;16.00;97.30;;;;;;5034517;28;20227;-91
2021/07/01 03:53:48;;;;;;;27.10;14.27;;;16.00;97.30;;;;;;5015829;28;20200;-89
2021/07/01 03:56:13;;;;;;;26.00;15.47;;;16.00;97.30;;;;;;5014333;28;20822;-91
2021/07/01 03:58:39;;;;;;;25.37;14.67;;;16.00;97.30;;;;;;5014817;28;20570;-90
2021/07/01 04:01:07;;;;;;;23.27;13.77;;;16.00;97.30;;;;;;5014472;28;20180;-90
2021/07/01 04:03:51;;;;;;;24.37;13.53;;;16.00;97.30;;;;;;5041501;23;20614;-90
2021/07/01 04:06:23;;;;;;;34.73;15.23;;;16.00;97.30;;;;;;4994574;28;20420;-90
2021/07/01 04:09:22;;;;;;;;;;;;;;;;;;;;;
2021/07/01 04:15:02;;;;;;;;;;;;;;;;;;;;;
2021/07/01 04:17:43;;;;;;;27.73;15.20;;;16.10;97.30;;;;;;4992557;28;20415;-89
2021/07/01 04:20:11;;;;;;;25.93;15.27;;;16.10;97.30;;;;;;4975584;28;20895;-90
2021/07/01 04:22:39;;;;;;;28.80;15.03;;;16.10;97.30;;;;;;4971491;28;20529;-90
2021/07/01 04:25:10;;;;;;;29.80;14.20;;;16.20;97.30;;;;;;4955736;28;20480;-90
2021/07/01 04:27:36;;;;;;;22.60;13.20;;;16.20;97.30;;;;;;4958994;28;20414;-90
2021/07/01 04:30:03;;;;;;;24.23;13.20;;;16.20;97.30;;;;;;4959882;28;20485;-90
2021/07/01 04:32:28;;;;;;;30.37;14.77;;;16.20;97.30;;;;;;4959268;28;20301;-90
2021/07/01 04:34:54;;;;;;;27.13;15.37;;;16.20;97.30;;;;;;4960025;28;20445;-90
2021/07/01 04:37:19;;;;;;;27.50;13.83;;;16.20;97.30;;;;;;4962218;28;20295;-92
2021/07/01 04:39:45;;;;;;;26.20;13.90;;;16.20;97.30;;;;;;4963823;28;20627;-90
2021/07/01 04:42:11;;;;;;;25.70;14.90;;;16.20;97.30;;;;;;4964755;28;20195;-93
2021/07/01 04:44:39;;;;;;;20.80;13.20;;;16.20;97.30;;;;;;4963555;28;20201;-90
2021/07/01 04:47:04;;;;;;;23.80;13.30;;;16.30;97.30;;;;;;4961387;28;20175;-90
2021/07/01 04:49:30;;;;;;;23.47;13.80;;;16.30;97.30;;;;;;4962714;28;20820;-90
2021/07/01 04:51:55;;;;;;;26.83;13.60;;;16.30;97.30;;;;;;4962428;28;20206;-91
2021/07/01 04:54:21;;;;;;;28.20;13.70;;;16.30;97.30;;;;;;4962162;28;20182;-90
2021/07/01 04:56:46;;;;;;;25.20;13.47;;;16.40;97.30;;;;;;4963935;28;20178;-94
2021/07/01 04:59:14;;;;;;;27.07;12.60;;;16.40;97.30;;;;;;4961643;28;20665;-90
2021/07/01 05:08:01;;;;;;;20.93;12.40;;;16.50;97.30;;;;;;4996761;28;20501;-86
2021/07/01 05:10:29;;;;;;;22.27;10.50;;;16.60;97.30;;;;;;4997638;28;20945;-87
2021/07/01 05:13:12;;;;;;;23.40;12.63;;;16.60;97.30;;;;;;4999657;28;20955;-84
2021/07/01 05:15:41;;;;;;;23.90;12.17;;;16.70;97.30;;;;;;5001009;28;20408;-85
2021/07/01 05:18:06;;;;;;;17.50;10.77;;;16.80;97.30;;;;;;4999719;28;20841;-85
2021/07/01 05:20:32;;;;;;;19.93;11.67;;;16.80;97.30;;;;;;5017661;28;20494;-84
2021/07/01 05:22:59;;;;;;;21.10;11.53;;;16.80;97.30;;;;;;5001715;28;20268;-85
2021/07/01 05:25:25;;;;;;;19.20;11.70;;;16.80;97.30;;;;;;5000024;28;20196;-84
2021/07/01 05:27:51;;;;;;;22.67;11.83;;;16.80;97.30;;;;;;4999404;28;20420;-86
2021/07/01 05:30:17;;;;;;;20.53;11.10;;;16.80;97.30;;;;;;4999066;28;20169;-87
2021/07/01 05:32:43;;;;;;;17.43;11.07;;;16.90;97.30;;;;;;5000211;28;20449;-85
2021/07/01 05:35:09;;;;;;;20.40;12.23;;;16.90;97.30;;;;;;4999875;28;20431;-84
2021/07/01 05:37:36;;;;;;;20.17;12.80;;;17.00;97.30;;;;;;5000457;28;20427;-87
2021/07/01 05:40:03;;;;;;;19.77;11.33;;;17.00;97.30;;;;;;4998637;28;20491;-86
2021/07/01 05:42:29;;;;;;;17.77;11.47;;;17.00;97.30;;;;;;4999387;28;20472;-86
2021/07/01 05:44:55;;;;;;;18.83;11.57;;;17.00;97.30;;;;;;4998437;28;20451;-88
2021/07/01 05:47:20;;;;;;;18.90;11.47;;;17.00;97.30;;;;;;4998686;28;20173;-88
2021/07/01 05:49:46;;;;;;;20.47;11.17;;;17.00;97.30;;;;;;4998622;28;20228;-88
2021/07/01 05:52:14;;;;;;;17.90;11.03;;;17.00;97.30;;;;;;4998668;28;20635;-88
2021/07/01 05:54:53;;;;;;;18.90;11.23;;;17.00;97.30;;;;;;4998940;28;20173;-87
2021/07/01 05:57:19;;;;;;;20.33;11.63;;;17.00;97.30;;;;;;4999155;28;20408;-84
2021/07/01 05:59:44;;;;;;;17.87;11.67;;;17.00;97.30;;;;;;5000202;28;20506;-85
2021/07/01 06:02:10;;;;;;;17.37;10.40;;;17.00;97.30;;;;;;4998512;28;20261;-84
2021/07/01 06:04:36;;;;;;;16.47;10.27;;;17.00;97.30;;;;;;4998262;28;20269;-84
2021/07/01 06:07:02;;;;;;;17.40;10.60;;;17.00;97.30;;;;;;4998542;28;20656;-84
2021/07/01 06:09:28;;;;;;;18.67;10.87;;;17.10;97.30;;;;;;4998214;28;20192;-84
2021/07/01 06:11:56;;;;;;;18.27;10.77;;;17.10;97.30;;;;;;4998668;28;20220;-85
2021/07/01 06:14:24;;;;;;;13.97;8.53;;;17.10;97.30;;;;;;4998398;28;20431;-85
2021/07/01 06:16:53;;;;;;;13.77;8.37;;;17.10;97.30;;;;;;4991487;28;20500;-85
2021/07/01 06:19:20;;;;;;;13.83;8.20;;;17.10;97.30;;;;;;4960506;28;20469;-85
2021/07/01 06:21:51;;;;;;;15.80;8.63;;;17.10;97.30;;;;;;4965294;28;20438;-87
2021/07/01 06:24:17;;;;;;;10.83;6.67;;;17.10;97.30;;;;;;4976710;28;21123;-86
2021/07/01 06:26:46;;;;;;;8.60;6.07;;;17.20;97.30;;;;;;4981962;28;20428;-87
2021/07/01 06:29:12;;;;;;;14.37;6.63;;;17.20;97.30;;;;;;4979285;28;20432;-87
2021/07/01 06:31:39;;;;;;;8.00;5.67;;;17.30;97.30;;;;;;4976141;28;20449;-84
2021/07/01 06:34:06;;;;;;;8.57;5.40;;;17.30;97.30;;;;;;4974286;28;20441;-85
2021/07/01 06:36:35;;;;;;;5.80;4.10;;;17.30;97.30;;;;;;4979340;28;20490;-85
2021/07/01 06:39:09;;;;;;;6.60;4.20;;;17.30;97.30;;;;;;4981339;28;20429;-85
2021/07/01 06:41:41;;;;;;;7.07;5.37;;;17.30;97.30;;;;;;4980750;28;20942;-85
2021/07/01 06:44:20;;;;;;;8.40;5.40;;;17.20;97.30;;;;;;4977888;28;20440;-85
2021/07/01 06:46:46;;;;;;;10.53;5.70;;;17.20;97.30;;;;;;4978643;28;20507;-86
2021/07/01 06:49:13;;;;;;;9.10;5.33;;;17.20;97.30;;;;;;4978187;28;20425;-86
2021/07/01 06:51:41;;;;;;;9.60;5.40;;;17.20;97.30;;;;;;4980241;28;20528;-86
2021/07/01 06:54:17;;;;;;;8.53;5.00;;;17.20;97.30;;;;;;4978244;28;20836;-86
2021/07/01 06:56:53;;;;;;;12.20;5.77;;;17.20;97.30;;;;;;4980926;28;20491;-86
2021/07/01 06:59:21;;;;;;;7.37;5.13;;;17.20;97.30;;;;;;4982634;28;20460;-87
2021/07/01 07:01:49;;;;;;;7.47;4.90;;;17.20;97.30;;;;;;4976542;28;20526;-87
2021/07/01 07:04:18;;;;;;;8.67;4.83;;;17.30;97.30;;;;;;4958134;28;20473;-87
2021/07/01 07:06:47;;;;;;;7.60;5.30;;;17.30;97.30;;;;;;4958634;28;20488;-87
2021/07/01 07:09:14;;;;;;;7.93;5.13;;;17.40;97.30;;;;;;4958436;28;20433;-86
2021/07/01 07:11:41;;;;;;;10.67;5.50;;;17.40;97.30;;;;;;4958655;28;20441;-86
2021/07/01 07:14:08;;;;;;;12.90;5.43;;;17.30;97.30;;;;;;4958529;28;20573;-86
2021/07/01 07:16:39;;;;;;;11.17;5.90;;;17.30;97.30;;;;;;4960593;28;20421;-86
2021/07/01 07:19:09;;;;;;;8.60;5.17;;;17.40;97.30;;;;;;4959671;28;20822;-85
2021/07/01 07:21:43;;;;;;;8.90;5.57;;;17.40;97.30;;;;;;4957880;28;20437;-86
2021/07/01 07:24:09;;;;;;;8.00;4.93;;;17.40;97.30;;;;;;4958843;28;20415;-86
2021/07/01 07:26:37;;;;;;;8.80;4.80;;;17.40;97.30;;;;;;4958353;28;20513;-86
2021/07/01 07:29:03;;;;;;;10.33;5.57;;;17.40;97.30;;;;;;4960948;28;20185;-86
2021/07/01 07:31:31;;;;;;;12.93;7.00;;;17.40;97.30;;;;;;4980723;28;20441;-86
2021/07/01 07:34:09;;;;;;;14.47;6.83;;;17.40;97.30;;;;;;4967106;28;20180;-86
2021/07/01 07:36:35;;;;;;;13.17;6.40;;;17.30;97.30;;;;;;4978146;28;20412;-86
2021/07/01 07:39:04;;;;;;;10.67;5.97;;;17.40;97.30;;;;;;4978296;28;20413;-86
2021/07/01 07:41:30;;;;;;;9.60;5.20;;;17.40;97.30;;;;;;4977446;28;20198;-87
2021/07/01 07:43:56;;;;;;;7.50;4.73;;;17.50;97.30;;;;;;4977944;28;20472;-86
2021/07/01 07:46:24;;;;;;;9.33;4.60;;;17.60;97.30;;;;;;4977371;28;20533;-86
2021/07/01 07:48:50;;;;;;;7.27;4.40;;;17.70;97.30;;;;;;4977543;28;20866;-86
2021/07/01 07:51:20;;;;;;;7.50;4.60;;;17.70;97.30;;;;;;4977406;28;20472;-86
2021/07/01 07:53:53;;;;;;;9.17;4.90;;;17.70;97.30;;;;;;4977202;28;20476;-86
2021/07/01 07:56:26;;;;;;;5.57;4.07;;;17.70;97.30;;;;;;4977970;28;20433;-86
2021/07/01 07:58:55;;;;;;;6.30;4.07;;;17.70;97.30;;;;;;4977200;28;20417;-86
2021/07/01 08:01:22;;;;;;;7.97;4.00;;;17.70;97.30;;;;;;4977443;28;20443;-86
2021/07/01 08:03:52;;;;;;;14.67;3.97;;;17.70;97.30;;;;;;4977291;28;20503;-86
2021/07/01 08:06:22;;;;;;;4.83;3.47;;;17.80;97.30;;;;;;4961679;28;20480;-86
2021/07/01 08:08:48;;;;;;;4.27;3.23;;;17.80;97.30;;;;;;4958534;28;20410;-85
2021/07/01 08:11:16;;;;;;;6.67;3.80;;;17.80;97.30;;;;;;4957854;28;20438;-86
2021/07/01 08:13:42;;;;;;;7.80;3.87;;;17.80;97.30;;;;;;4958028;28;20421;-87
2021/07/01 08:16:08;;;;;;;5.20;3.93;;;17.80;97.30;;;;;;4958118;28;20480;-87
2021/07/01 08:18:39;;;;;;;7.33;4.10;;;17.80;97.30;;;;;;4958333;28;20671;-87
2021/07/01 08:21:08;;;;;;;3.73;3.37;;;17.80;97.30;;;;;;4957617;28;20225;-86
2021/07/01 08:23:34;;;;;;;8.20;3.97;;;17.80;97.30;;;;;;4957732;28;20418;-87
2021/07/01 08:26:01;;;;;;;5.33;3.70;;;17.80;97.30;;;;;;4957651;28;20422;-87
2021/07/01 08:28:28;;;;;;;6.87;3.67;;;17.80;97.30;;;;;;4957936;28;20550;-86
2021/07/01 08:30:58;;;;;;;4.97;3.50;;;17.80;97.30;;;;;;4956946;28;20512;-87
2021/07/01 08:33:33;;;;;;;7.40;3.40;;;17.80;97.30;;;;;;4946043;29;20489;-86
2021/07/01 08:36:00;;;;;;;3.67;3.00;;;17.80;97.30;;;;;;4938345;29;20419;-86
2021/07/01 08:38:26;;;;;;;6.00;3.20;;;17.80;97.30;;;;;;4937996;29;20419;-86
2021/07/01 08:40:59;;;;;;;4.20;3.40;;;17.80;97.30;;;;;;4938512;29;20477;-86
2021/07/01 08:43:35;;;;;;;5.27;3.43;;;17.80;97.30;;;;;;4944294;28;20175;-86
2021/07/01 08:46:07;;;;;;;6.90;3.50;;;17.80;97.30;;;;;;4957958;28;20414;-87
2021/07/01 08:48:47;;;;;;;4.80;3.50;;;17.90;97.30;;;;;;4957880;28;20997;-86
2021/07/01 08:51:19;;;;;;;7.47;3.30;;;17.90;97.30;;;;;;4957750;28;20437;-87
2021/07/01 08:54:06;;;;;;;4.80;3.40;;;17.90;97.30;;;;;;4958496;28;20425;-86
2021/07/01 08:56:37;;;;;;;8.20;3.80;;;17.90;97.30;;;;;;4958847;28;20409;-85
2021/07/01 08:59:09;;;;;;;5.87;2.80;;;17.80;97.30;;;;;;4957357;28;20516;-85
2021/07/01 09:01:40;;;;;;;6.70;3.40;;;17.90;97.30;;;;;;4956959;28;20464;-85
2021/07/01 09:04:20;;;;;;;5.10;3.27;;;17.90;97.30;;;;;;4957426;28;20430;-85
2021/07/01 09:06:55;;;;;;;4.60;2.80;;;17.90;97.30;;;;;;4957363;28;20473;-84
2021/07/01 09:09:30;;;;;;;3.67;3.20;;;17.90;97.30;;;;;;4957777;28;20516;-85
2021/07/01 09:12:00;;;;;;;5.87;3.60;;;18.00;97.30;;;;;;4956869;28;20455;-81
2021/07/01 09:14:29;;;;;;;6.53;3.07;;;18.00;97.30;;;;;;4957839;28;20418;-85
2021/07/01 09:16:55;;;;;;;5.00;2.50;;;18.00;97.30;;;;;;4957195;28;20438;-85
2021/07/01 09:19:25;;;;;;;6.10;3.27;;;18.00;97.30;;;;;;4958210;28;20473;-85
2021/07/01 09:21:51;;;;;;;4.40;3.20;;;18.10;97.30;;;;;;4957137;28;20457;-85
2021/07/01 09:24:18;;;;;;;4.43;3.10;;;18.10;97.30;;;;;;4956044;28;20516;-85
2021/07/01 09:26:48;;;;;;;5.57;3.53;;;18.00;97.30;;;;;;4988303;28;20422;-85
2021/07/01 09:29:15;;;;;;;4.30;3.50;;;17.90;97.30;;;;;;4961728;28;20846;-86
2021/07/01 09:31:42;;;;;;;11.50;2.70;;;17.90;97.30;;;;;;4955537;28;20443;-85
2021/07/01 09:34:09;;;;;;;3.97;2.77;;;17.90;97.30;;;;;;4962091;28;20488;-85
2021/07/01 09:36:36;;;;;;;3.80;2.47;;;17.90;97.30;;;;;;4963111;28;20426;-85
2021/07/01 09:39:21;;;;;;;3.77;2.83;;;18.00;97.30;;;;;;4963277;28;20438;-85
2021/07/01 09:41:50;;;;;;;3.30;2.60;;;18.00;97.30;;;;;;4960998;28;20446;-85
2021/07/01 09:44:18;;;;;;;2.87;2.40;;;18.00;97.30;;;;;;4960142;28;20414;-87
2021/07/01 09:46:48;;;;;;;4.90;2.63;;;18.00;97.30;;;;;;4960309;28;20422;-87
2021/07/01 09:49:20;;;;;;;3.13;2.43;;;18.00;97.30;;;;;;4959775;28;20434;-87
2021/07/01 09:51:47;;;;;;;3.67;2.10;;;18.00;97.30;;;;;;4960085;28;20793;-87
2021/07/01 09:54:16;;;;;;;3.47;2.40;;;18.10;97.30;;;;;;4960331;28;20463;-87
2021/07/01 09:56:42;;;;;;;5.17;2.50;;;18.10;97.30;;;;;;4959915;28;20425;-89
2021/07/01 09:59:19;;;;;;;3.33;2.50;;;18.10;97.30;;;;;;4959846;28;20422;-89
2021/07/01 10:01:45;;;;;;;5.57;2.70;;;18.10;97.30;;;;;;4959842;28;20441;-88
2021/07/01 10:04:11;;;;;;;4.87;2.73;;;18.10;97.30;;;;;;4959956;28;20540;-87
2021/07/01 10:06:38;;;;;;;8.20;3.27;;;18.00;97.30;;;;;;4959964;28;20237;-84
2021/07/01 10:09:06;;;;;;;3.63;2.87;;;18.10;97.30;;;;;;4958946;28;20179;-89
2021/07/01 10:11:39;;;;;;;6.23;2.70;;;18.10;97.30;;;;;;4958584;28;20441;-88
2021/07/01 10:14:10;;;;;;;4.10;3.20;;;18.20;97.30;;;;;;4959959;28;20530;-88
2021/07/01 10:16:37;;;;;;;6.20;3.40;;;18.10;97.30;;;;;;4960078;28;20472;-88
2021/07/01 10:19:08;;;;;;;5.97;2.80;;;18.20;97.30;;;;;;4960250;28;20426;-87
2021/07/01 10:21:35;;;;;;;4.67;2.60;;;18.20;97.30;;;;;;4960063;28;20456;-88
2021/07/01 10:24:13;;;;;;;3.70;2.50;;;18.30;97.30;;;;;;4962055;28;20440;-87
2021/07/01 10:26:45;;;;;;;2.73;2.50;;;18.40;97.30;;;;;;4959955;28;20418;-88
2021/07/01 10:29:12;;;;;;;8.63;3.20;;;18.60;97.30;;;;;;5001207;23;20562;-88
2021/07/01 10:31:56;;;;;;;3.03;2.40;;;18.70;97.30;;;;;;4999805;28;20424;-88
2021/07/01 10:34:29;;;;;;;5.70;2.50;;;18.80;97.30;;;;;;5001032;28;20440;-88
2021/07/01 10:37:16;;;;;;;3.60;2.70;;;18.80;97.30;;;;;;4996663;28;20778;-87
2021/07/01 10:39:44;;;;;;;4.80;2.90;;;18.70;97.30;;;;;;5004886;28;20464;-87
2021/07/01 10:42:09;;;;;;;2.63;2.17;;;18.70;97.30;;;;;;5000860;28;20459;-87
2021/07/01 10:44:36;;;;;;;3.27;2.40;;;18.70;97.30;;;;;;4993382;28;20962;-88
2021/07/01 10:47:02;;;;;;;4.67;3.03;;;18.50;97.30;;;;;;4995534;28;20233;-89
2021/07/01 10:49:36;;;;;;;4.27;2.33;;;18.50;97.30;;;;;;4980200;28;20451;-90
2021/07/01 10:52:13;;;;;;;5.77;2.70;;;18.40;97.30;;;;;;4983156;28;20448;-87
2021/07/01 10:54:57;;;;;;;4.77;2.53;;;18.30;97.30;;;;;;4981157;28;20417;-91
2021/07/01 11:01:13;;;;;;;3.53;2.60;;;18.40;97.30;;;;;;4996808;28;20499;-87
2021/07/01 11:03:42;;;;;;;3.43;2.13;;;18.40;97.30;;;;;;4979913;28;20479;-88
2021/07/01 11:06:31;;;;;;;3.70;2.60;;;18.50;97.30;;;;;;4991926;28;20443;-88
2021/07/01 11:09:17;;;;;;;2.97;2.27;;;18.60;97.30;;;;;;4998677;28;20416;-88
2021/07/01 11:11:51;;;;;;;3.93;2.60;;;18.70;97.30;;;;;;4998725;28;20444;-89
2021/07/01 11:14:43;;;;;;;3.20;2.30;;;18.70;97.30;;;;;;4997998;28;20463;-88
2021/07/01 11:17:22;;;;;;;8.10;2.80;;;18.70;97.30;;;;;;4998420;28;20436;-88
2021/07/01 11:19:53;;;;;;;9.53;2.63;;;18.70;97.30;;;;;;4997724;28;20444;-88
2021/07/01 11:22:50;;;;;;;4.07;2.60;;;18.60;97.30;;;;;;4998004;28;20444;-89
2021/07/01 11:25:44;;;;;;;4.93;2.50;;;18.50;97.30;;;;;;4998070;28;20494;-88
2021/07/01 11:28:30;;;;;;;6.33;2.30;;;18.40;97.30;;;;;;4998467;28;20888;-88
2021/07/01 11:31:02;;;;;;;4.80;2.70;;;18.40;97.30;;;;;;4998230;28;20451;-89
2021/07/01 11:33:31;;;;;;;3.10;2.30;;;18.30;97.30;;;;;;4998117;28;20425;-88
2021/07/01 11:36:39;;;;;;;3.00;2.50;;;18.30;97.30;;;;;;4997847;28;20937;-88
2021/07/01 11:39:19;;;;;;;3.77;2.43;;;18.20;97.30;;;;;;4938521;29;20426;-88
2021/07/01 11:41:56;;;;;;;2.80;2.10;;;18.20;97.30;;;;;;4993739;28;20459;-89
2021/07/01 11:44:23;;;;;;;2.17;1.87;;;18.20;97.30;;;;;;4997875;28;20410;-88
2021/07/01 11:46:52;;;;;;;5.10;2.03;;;18.20;97.30;;;;;;4996389;28;20491;-88
2021/07/01 11:49:21;;;;;;;4.30;2.60;;;18.20;97.30;;;;;;4998300;28;20423;-88
2021/07/01 11:51:46;;;;;;;2.70;2.17;;;18.20;97.30;;;;;;4997052;28;20443;-88
2021/07/01 11:54:12;;;;;;;4.90;2.60;;;18.20;97.30;;;;;;4998032;28;20508;-89
2021/07/01 11:56:53;;;;;;;5.47;2.33;;;18.20;97.30;;;;;;4997531;28;20271;-88
2021/07/01 11:59:31;;;;;;;3.90;2.20;;;18.10;97.30;;;;;;4987964;28;20464;-88
2021/07/01 12:02:02;;;;;;;2.97;2.00;;;18.10;97.30;;;;;;4978451;28;20460;-88
2021/07/01 12:04:36;;;;;;;2.70;2.20;;;18.10;97.30;;;;;;4977875;28;20500;-87
2021/07/01 12:07:16;;;;;;;4.63;2.77;;;18.00;97.30;;;;;;4978665;28;20405;-88
2021/07/01 12:09:43;;;;;;;2.67;2.10;;;18.00;97.30;;;;;;4985534;28;20478;-88
2021/07/01 12:12:11;;;;;;;4.43;2.70;;;18.00;97.30;;;;;;4996990;28;20442;-88
2021/07/01 12:14:40;;;;;;;5.67;2.77;;;18.00;97.30;;;;;;4997489;28;20428;-87
2021/07/01 12:17:06;;;;;;;2.73;2.30;;;18.00;97.30;;;;;;4998492;28;20827;-88
2021/07/01 12:19:47;;;;;;;2.53;2.30;;;18.00;97.30;;;;;;5016872;28;20451;-87
2021/07/01 12:22:48;;;;;;;4.40;2.50;;;18.00;97.30;;;;;;5017008;28;20434;-88
2021/07/01 12:25:37;;;;;;;4.00;2.60;;;18.10;97.30;;;;;;5016273;28;20407;-89
2021/07/01 12:30:51;;;;;;;3.80;2.50;;;18.20;97.30;;;;;;5034413;28;21003;-88
2021/07/01 12:33:38;;;;;;;3.17;2.53;;;18.30;97.30;;;;;;5016424;28;20449;-88
2021/07/01 12:36:13;;;;;;;2.30;1.83;;;18.30;97.30;;;;;;5016961;28;20764;-87
2021/07/01 12:38:41;;;;;;;2.67;2.20;;;18.20;97.30;;;;;;5016490;28;20410;-88
2021/07/01 12:41:11;;;;;;;2.60;1.93;;;18.20;97.30;;;;;;5016169;28;20498;-88
2021/07/01 12:43:52;;;;;;;4.00;2.60;;;18.20;97.30;;;;;;5016893;28;20415;-88
2021/07/01 12:46:42;;;;;;;4.20;2.90;;;18.20;97.30;;;;;;5016286;28;20509;-87
2021/07/01 12:49:18;;;;;;;2.60;2.37;;;18.30;97.30;;;;;;5016302;28;20412;-88
2021/07/01 12:51:53;;;;;;;3.33;2.37;;;18.30;97.30;;;;;;5016744;28;20509;-88
2021/07/01 12:54:25;;;;;;;3.63;2.27;;;18.40;97.30;;;;;;5004912;28;20424;-88
2021/07/01 12:56:51;;;;;;;2.80;2.03;;;18.40;97.30;;;;;;4997273;28;20427;-88
2021/07/01 12:59:18;;;;;;;4.03;2.87;;;18.50;97.30;;;;;;4999591;28;20408;-88
2021/07/01 13:01:44;;;;;;;2.83;2.23;;;18.50;97.30;;;;;;5000690;28;20519;-88
2021/07/01 13:04:10;;;;;;;4.53;2.43;;;18.50;97.30;;;;;;5001060;28;20408;-88
2021/07/01 13:06:41;;;;;;;3.77;2.67;;;18.50;97.30;;;;;;5000227;28;20423;-88
2021/07/01 13:09:07;;;;;;;4.73;2.37;;;18.50;97.30;;;;;;5000855;28;20217;-88
2021/07/01 13:11:43;;;;;;;3.63;2.53;;;18.50;97.30;;;;;;4999757;28;20478;-88
2021/07/01 13:14:14;;;;;;;3.07;2.17;;;18.50;97.30;;;;;;5000443;28;20416;-88
2021/07/01 13:16:40;;;;;;;6.80;2.67;;;18.60;97.30;;;;;;5000510;28;20420;-88
2021/07/01 13:19:22;;;;;;;5.07;3.03;;;18.60;97.30;;;;;;4999915;28;20408;-88
2021/07/01 13:21:55;;;;;;;3.30;2.50;;;18.50;97.30;;;;;;5000391;28;20629;-86
2021/07/01 13:24:26;;;;;;;4.20;2.50;;;18.40;97.30;;;;;;4999788;28;20421;-88
2021/07/01 13:26:53;;;;;;;3.87;2.57;;;18.30;97.30;;;;;;4999858;28;20503;-86
2021/07/01 13:29:39;;;;;;;4.07;2.50;;;18.30;97.30;;;;;;5000441;28;20498;-87
2021/07/01 13:32:07;;;;;;;3.50;2.57;;;18.30;97.30;;;;;;4980927;28;20444;-86
2021/07/01 13:34:33;;;;;;;3.70;2.50;;;18.30;97.30;;;;;;4980653;28;20439;-86
2021/07/01 13:37:26;;;;;;;5.93;3.13;;;18.30;97.30;;;;;;4986327;28;21097;-87
2021/07/01 13:39:53;;;;;;;4.97;2.80;;;18.30;97.30;;;;;;4999463;28;20463;-87
2021/07/01 13:42:31;;;;;;;3.33;2.50;;;18.30;97.30;;;;;;5000609;28;20438;-88
2021/07/01 13:45:10;;;;;;;3.97;2.47;;;18.30;97.30;;;;;;5000252;28;20435;-87